Time;durP1;ratioP1;P1;durP2;ratioP2;P2;SDS_P1;SDS_P2;PMS_P1;PMS_P2;Temp;Humidity;BMP_temperature;BMP_pressure;BME280_temperature;BME280_humidity;BME280_pressure;Samples;Min_cycle;Max_cycle;Signal;HPM_P1;HPM_P2
2022/06/06 00:01:18;;;;;;;15.45;13.55;;;12.10;99.90;;;;;;5077641;28;20048;-72
2022/06/06 00:03:45;;;;;;;15.68;13.60;;;12.10;99.90;;;;;;5077723;28;20082;-72
2022/06/06 00:06:14;;;;;;;16.70;14.15;;;12.10;99.90;;;;;;5077893;28;20040;-73
2022/06/06 00:08:41;;;;;;;17.33;14.53;;;12.10;99.90;;;;;;5095136;28;20093;-72
2022/06/06 00:11:09;;;;;;;16.20;14.27;;;12.10;99.90;;;;;;5077828;28;20357;-72
2022/06/06 00:13:37;;;;;;;17.00;14.38;;;12.10;99.90;;;;;;5094338;28;20047;-72
2022/06/06 00:16:05;;;;;;;15.93;14.32;;;12.10;99.90;;;;;;5077586;28;20072;-73
2022/06/06 00:18:33;;;;;;;15.43;13.32;;;12.00;99.90;;;;;;5061328;28;20456;-73
2022/06/06 00:21:00;;;;;;;16.55;12.95;;;12.00;99.90;;;;;;5094118;28;20044;-73
2022/06/06 00:23:27;;;;;;;18.25;13.27;;;12.00;99.90;;;;;;5093630;28;20039;-73
2022/06/06 00:25:54;;;;;;;15.43;13.18;;;12.00;99.90;;;;;;5094183;28;20048;-74
2022/06/06 00:28:21;;;;;;;15.15;13.13;;;12.10;99.90;;;;;;5061489;28;20080;-73
2022/06/06 00:30:48;;;;;;;15.70;12.25;;;12.00;99.90;;;;;;5094832;28;20036;-74
2022/06/06 00:36:01;;;;;;;14.25;12.48;;;12.00;99.90;;;;;;5094824;28;20456;-73
2022/06/06 00:38:28;;;;;;;13.85;12.40;;;12.00;99.90;;;;;;5093993;28;20467;-73
2022/06/06 00:40:55;;;;;;;13.95;12.55;;;12.00;99.90;;;;;;5077032;28;20055;-74
2022/06/06 00:43:21;;;;;;;16.35;12.18;;;11.90;99.90;;;;;;5094652;28;20048;-74
2022/06/06 00:45:50;;;;;;;14.07;11.95;;;11.90;99.90;;;;;;5093522;28;20128;-74
2022/06/06 00:48:36;;;;;;;15.50;13.02;;;11.90;99.90;;;;;;5076820;28;20042;-74
2022/06/06 00:51:04;;;;;;;20.63;12.27;;;11.90;99.90;;;;;;5094118;28;20058;-74
2022/06/06 00:53:35;;;;;;;15.90;12.38;;;11.90;99.90;;;;;;5094131;28;20091;-74
2022/06/06 00:56:11;;;;;;;19.17;13.20;;;11.90;99.90;;;;;;5094208;28;20040;-73
2022/06/06 00:58:40;;;;;;;14.88;12.85;;;11.90;99.90;;;;;;5093635;28;20047;-73
2022/06/06 01:01:08;;;;;;;16.73;13.55;;;11.90;99.90;;;;;;5094387;28;20044;-73
2022/06/06 01:03:36;;;;;;;17.20;11.98;;;11.90;99.90;;;;;;5060858;28;20044;-73
2022/06/06 01:06:03;;;;;;;14.00;11.63;;;11.80;99.90;;;;;;5077051;28;20042;-73
2022/06/06 01:08:31;;;;;;;15.55;11.52;;;11.90;99.90;;;;;;5060442;28;20444;-73
2022/06/06 01:10:58;;;;;;;15.65;12.45;;;11.80;99.90;;;;;;5094323;28;20044;-73
2022/06/06 01:13:25;;;;;;;14.48;12.55;;;11.80;99.90;;;;;;5076529;28;20410;-73
2022/06/06 01:16:22;;;;;;;13.90;11.95;;;11.80;99.90;;;;;;5093257;28;20072;-74
2022/06/06 01:18:58;;;;;;;14.25;12.55;;;11.70;99.90;;;;;;5094059;28;20119;-74
2022/06/06 01:21:48;;;;;;;17.23;13.18;;;11.70;99.90;;;;;;5094447;28;20097;-73
2022/06/06 01:24:22;;;;;;;12.15;10.80;;;11.70;99.90;;;;;;5093417;28;20387;-73
2022/06/06 01:27:02;;;;;;;14.50;11.40;;;11.80;99.90;;;;;;5078042;28;20348;-73
2022/06/06 01:29:32;;;;;;;13.75;11.57;;;11.80;99.90;;;;;;5092813;28;20482;-73
2022/06/06 01:32:23;;;;;;;12.80;11.32;;;11.80;99.90;;;;;;5076399;28;20047;-73
2022/06/06 01:34:52;;;;;;;15.27;11.15;;;11.90;99.90;;;;;;5088596;28;20086;-73
2022/06/06 01:37:37;;;;;;;14.30;11.93;;;12.00;99.90;;;;;;5076578;28;20052;-73
2022/06/06 01:40:07;;;;;;;15.73;10.65;;;12.10;99.90;;;;;;5060280;28;20479;-73
2022/06/06 01:42:38;;;;;;;12.20;10.60;;;12.20;99.90;;;;;;5076350;28;20056;-73
2022/06/06 01:45:34;;;;;;;13.40;11.48;;;12.20;99.90;;;;;;5060616;28;20040;-73
2022/06/06 01:48:04;;;;;;;15.43;10.82;;;12.30;99.90;;;;;;5093518;28;20418;-73
2022/06/06 01:50:31;;;;;;;11.68;10.45;;;12.30;99.90;;;;;;5076204;28;20050;-73
2022/06/06 01:53:01;;;;;;;15.38;11.15;;;12.40;99.90;;;;;;5093399;28;20036;-73
2022/06/06 01:55:29;;;;;;;16.88;11.70;;;12.40;99.90;;;;;;5092979;28;20051;-73
2022/06/06 01:57:59;;;;;;;15.20;11.70;;;12.40;99.90;;;;;;5059119;28;20395;-73
2022/06/06 02:00:26;;;;;;;11.70;10.35;;;12.50;99.90;;;;;;5093436;28;20364;-73
2022/06/06 02:02:53;;;;;;;13.40;10.18;;;12.50;99.90;;;;;;5093569;28;20479;-73
2022/06/06 02:05:20;;;;;;;11.85;10.50;;;12.50;99.90;;;;;;5093414;28;20471;-73
2022/06/06 02:07:47;;;;;;;13.90;11.27;;;12.60;99.90;;;;;;5094546;28;20375;-73
2022/06/06 02:10:15;;;;;;;14.30;10.60;;;12.60;99.90;;;;;;5075865;28;20040;-73
2022/06/06 02:12:43;;;;;;;11.93;10.02;;;12.60;99.90;;;;;;5092450;28;20044;-73
2022/06/06 02:15:12;;;;;;;12.18;10.32;;;12.60;99.90;;;;;;5092373;28;20047;-73
2022/06/06 02:17:39;;;;;;;16.27;10.65;;;12.60;99.90;;;;;;5092481;28;20040;-73
2022/06/06 02:20:07;;;;;;;12.68;10.93;;;12.60;99.90;;;;;;5094124;28;20047;-74
2022/06/06 02:22:35;;;;;;;12.80;9.25;;;12.60;99.90;;;;;;5075815;28;20054;-73
2022/06/06 02:25:03;;;;;;;15.27;10.80;;;12.60;99.90;;;;;;5075961;28;20044;-74
2022/06/06 02:27:33;;;;;;;14.48;10.35;;;12.60;99.90;;;;;;5092020;28;20047;-73
2022/06/06 02:30:01;;;;;;;25.63;12.00;;;12.70;99.90;;;;;;5093448;28;20058;-73
2022/06/06 02:32:28;;;;;;;18.05;11.65;;;12.70;99.90;;;;;;5092315;28;20052;-73
2022/06/06 02:34:55;;;;;;;13.23;11.35;;;12.70;99.90;;;;;;5059771;28;20210;-73
2022/06/06 02:37:22;;;;;;;12.35;10.80;;;12.70;99.90;;;;;;5092779;28;20067;-73
2022/06/06 02:39:48;;;;;;;13.90;11.07;;;12.70;99.90;;;;;;5075619;28;20044;-73
2022/06/06 02:42:15;;;;;;;12.75;10.82;;;12.80;99.90;;;;;;5093049;28;20480;-74
2022/06/06 02:44:42;;;;;;;13.40;12.02;;;12.80;99.90;;;;;;5092534;28;20044;-74
2022/06/06 02:47:09;;;;;;;16.85;11.90;;;12.80;99.90;;;;;;5096194;28;20044;-73
2022/06/06 02:49:36;;;;;;;16.00;11.48;;;12.80;99.90;;;;;;5097300;28;20071;-73
2022/06/06 02:52:04;;;;;;;13.80;11.50;;;12.80;99.90;;;;;;5096061;28;20039;-73
2022/06/06 02:54:31;;;;;;;13.82;10.68;;;12.80;99.90;;;;;;5096025;28;20479;-73
2022/06/06 02:57:03;;;;;;;15.30;11.70;;;12.80;99.90;;;;;;5095578;28;20402;-73
2022/06/06 02:59:32;;;;;;;14.15;11.35;;;12.90;99.90;;;;;;5080117;28;20040;-72
2022/06/06 03:01:59;;;;;;;15.70;12.15;;;12.90;99.90;;;;;;5079340;28;20056;-73
2022/06/06 03:04:27;;;;;;;16.45;11.27;;;12.80;99.90;;;;;;5097135;28;20121;-73
2022/06/06 03:07:11;;;;;;;13.50;11.02;;;12.80;99.90;;;;;;5096348;28;20058;-72
2022/06/06 03:09:50;;;;;;;110.45;97.82;;;12.80;99.90;;;;;;5081164;28;20051;-74
2022/06/06 03:12:44;;;;;;;22.00;18.80;;;12.90;99.90;;;;;;5063076;28;20048;-74
2022/06/06 03:15:36;;;;;;;15.45;12.52;;;12.90;99.90;;;;;;5081873;28;20040;-74
2022/06/06 03:21:22;;;;;;;14.73;11.98;;;12.80;99.90;;;;;;5095953;28;20056;-74
2022/06/06 03:24:14;;;;;;;15.20;11.40;;;12.70;99.90;;;;;;5097225;28;20036;-74
2022/06/06 03:27:00;;;;;;;14.98;9.38;;;12.80;99.90;;;;;;5096551;28;20052;-74
2022/06/06 03:30:03;;;;;;;10.35;8.90;;;12.80;99.90;;;;;;5095822;28;20460;-74
2022/06/06 03:32:49;;;;;;;9.75;8.45;;;12.80;99.90;;;;;;5085053;28;20048;-74
2022/06/06 03:35:26;;;;;;;10.25;9.25;;;12.80;99.90;;;;;;5096028;28;20050;-74
2022/06/06 03:38:05;;;;;;;9.60;8.60;;;12.90;99.90;;;;;;5096639;28;20047;-74
2022/06/06 03:40:38;;;;;;;10.48;9.02;;;12.90;99.90;;;;;;5094968;28;20046;-74
2022/06/06 03:43:07;;;;;;;11.02;8.45;;;12.90;99.90;;;;;;5096481;28;20044;-74
2022/06/06 03:45:49;;;;;;;13.15;9.38;;;12.90;99.90;;;;;;5095886;28;20058;-74
2022/06/06 03:48:25;;;;;;;12.60;8.57;;;12.90;99.90;;;;;;5078635;28;20058;-74
2022/06/06 03:51:21;;;;;;;10.75;8.07;;;13.00;99.90;;;;;;5096631;28;20044;-74
2022/06/06 03:53:54;;;;;;;11.98;8.75;;;12.90;99.90;;;;;;5095463;28;20044;-74
2022/06/06 03:56:52;;;;;;;20.92;8.75;;;12.90;99.90;;;;;;5094641;28;20074;-74
2022/06/06 03:59:19;;;;;;;10.20;7.90;;;13.00;99.90;;;;;;5081150;28;20048;-74
2022/06/06 04:01:47;;;;;;;8.98;7.22;;;12.90;99.90;;;;;;5094394;28;20050;-74
2022/06/06 04:04:14;;;;;;;8.23;7.20;;;13.00;99.90;;;;;;5078043;28;20042;-74
2022/06/06 04:06:41;;;;;;;7.30;6.60;;;13.00;99.90;;;;;;5078668;28;20047;-74
2022/06/06 04:09:11;;;;;;;9.35;7.43;;;13.00;99.90;;;;;;5095380;28;20039;-74
2022/06/06 04:12:09;;;;;;;8.10;6.78;;;13.00;99.90;;;;;;5095615;28;20071;-74
2022/06/06 04:14:48;;;;;;;9.13;6.28;;;13.00;99.90;;;;;;5079542;28;20055;-74
2022/06/06 04:17:40;;;;;;;5.70;5.03;;;13.00;99.90;;;;;;5095187;28;20039;-74
2022/06/06 04:20:23;;;;;;;6.75;6.05;;;13.10;99.90;;;;;;5095775;28;20051;-74
2022/06/06 04:23:36;;;;;;;6.03;5.20;;;13.00;99.90;;;;;;5094003;28;20040;-74
2022/06/06 04:26:11;;;;;;;8.00;5.47;;;13.10;99.90;;;;;;5075763;28;20136;-74
2022/06/06 04:28:44;;;;;;;5.45;4.43;;;13.00;99.90;;;;;;5077730;28;20083;-74
2022/06/06 04:31:30;;;;;;;8.20;4.78;;;13.10;99.90;;;;;;5095868;28;20062;-73
2022/06/06 04:34:02;;;;;;;6.45;5.13;;;13.10;99.90;;;;;;5094217;28;20101;-74
2022/06/06 04:36:33;;;;;;;5.53;4.60;;;13.10;99.90;;;;;;5095089;28;20044;-74
2022/06/06 04:39:19;;;;;;;7.40;5.07;;;13.10;99.90;;;;;;5078124;28;20044;-74
2022/06/06 04:41:56;;;;;;;6.35;4.18;;;13.10;99.90;;;;;;5094708;28;20044;-74
2022/06/06 04:44:28;;;;;;;5.43;4.40;;;13.10;99.90;;;;;;5094474;28;20047;-74
2022/06/06 04:47:22;;;;;;;5.38;3.88;;;13.10;99.90;;;;;;5094613;28;20048;-74
2022/06/06 04:49:49;;;;;;;4.57;3.92;;;13.20;99.90;;;;;;5078176;28;20042;-74
2022/06/06 04:52:16;;;;;;;4.35;3.60;;;13.20;99.90;;;;;;5093875;28;20040;-74
2022/06/06 04:54:43;;;;;;;4.10;3.67;;;13.20;99.90;;;;;;5076601;28;20063;-74
2022/06/06 04:57:11;;;;;;;5.18;4.10;;;13.20;99.90;;;;;;5077495;28;20040;-73
2022/06/06 04:59:38;;;;;;;4.05;3.67;;;13.20;99.90;;;;;;5094104;28;20066;-74
2022/06/06 05:02:05;;;;;;;5.78;3.53;;;13.30;99.90;;;;;;5093559;28;20048;-74
2022/06/06 05:04:32;;;;;;;4.28;3.33;;;13.40;99.90;;;;;;5094101;28;20043;-73
2022/06/06 05:07:21;;;;;;;4.55;3.47;;;13.40;99.90;;;;;;5094396;28;20497;-73
2022/06/06 05:10:00;;;;;;;4.35;3.90;;;13.40;99.90;;;;;;5093343;28;20044;-73
2022/06/06 05:13:01;;;;;;;4.60;3.40;;;13.40;99.90;;;;;;5095026;28;20048;-73
2022/06/06 05:16:05;;;;;;;3.85;3.08;;;13.40;99.90;;;;;;5093978;28;20067;-74
2022/06/06 05:18:44;;;;;;;5.03;3.33;;;13.40;99.90;;;;;;5094100;28;20040;-73
2022/06/06 05:21:13;;;;;;;4.32;3.90;;;13.30;99.90;;;;;;5092919;28;20157;-74
2022/06/06 05:23:59;;;;;;;6.13;4.05;;;13.30;99.90;;;;;;5094534;28;20040;-74
2022/06/06 05:26:32;;;;;;;7.43;4.47;;;13.30;99.90;;;;;;5094923;28;20050;-73
2022/06/06 05:29:10;;;;;;;4.20;3.83;;;13.30;99.90;;;;;;5094215;28;20436;-73
2022/06/06 05:31:46;;;;;;;3.97;3.58;;;13.20;99.90;;;;;;5094051;28;20050;-73
2022/06/06 05:34:30;;;;;;;4.70;3.75;;;13.20;99.90;;;;;;5093510;28;20086;-74
2022/06/06 05:37:15;;;;;;;4.25;3.65;;;13.20;99.90;;;;;;5094300;28;20494;-74
2022/06/06 05:40:06;;;;;;;6.43;4.30;;;13.20;99.90;;;;;;5094164;28;20486;-72
2022/06/06 05:43:06;;;;;;;44.58;35.28;;;13.20;99.90;;;;;;5093012;28;20043;-71
2022/06/06 05:45:45;;;;;;;14.10;12.52;;;13.20;99.90;;;;;;5094087;28;20143;-69
2022/06/06 05:48:44;;;;;;;5.13;4.60;;;13.20;99.90;;;;;;5092627;28;20044;-70
2022/06/06 05:51:16;;;;;;;6.90;5.05;;;13.30;99.90;;;;;;5093645;28;20382;-70
2022/06/06 05:53:56;;;;;;;25.58;22.77;;;13.30;99.90;;;;;;5075693;28;20044;-70
2022/06/06 05:56:29;;;;;;;11.55;9.55;;;13.30;99.90;;;;;;5093542;28;20044;-76
2022/06/06 05:59:01;;;;;;;6.50;5.53;;;13.40;99.90;;;;;;5093117;28;20047;-73
2022/06/06 06:01:33;;;;;;;4.90;4.40;;;13.40;99.90;;;;;;5093265;28;20040;-72
2022/06/06 06:04:16;;;;;;;50.38;42.22;;;13.30;99.90;;;;;;5094327;28;20044;-73
2022/06/06 06:07:07;;;;;;;13.25;10.05;;;13.30;99.90;;;;;;5061564;28;20051;-70
2022/06/06 06:10:00;;;;;;;6.15;5.55;;;13.40;99.90;;;;;;5093522;28;20044;-74
2022/06/06 06:12:49;;;;;;;4.72;4.25;;;13.40;99.90;;;;;;5093105;28;20424;-72
2022/06/06 06:15:32;;;;;;;4.28;3.53;;;13.40;99.90;;;;;;5076232;28;20036;-70
2022/06/06 06:18:03;;;;;;;4.40;4.00;;;13.30;99.90;;;;;;5076024;28;20075;-71
2022/06/06 06:20:33;;;;;;;4.22;3.35;;;13.30;99.90;;;;;;5078763;28;20044;-72
2022/06/06 06:23:05;;;;;;;4.45;3.83;;;13.30;99.90;;;;;;5096764;28;20463;-72
2022/06/06 06:25:37;;;;;;;4.90;4.32;;;13.30;99.90;;;;;;5096668;28;20048;-73
2022/06/06 06:28:10;;;;;;;4.30;3.88;;;13.30;99.90;;;;;;5063075;28;20048;-73
2022/06/06 06:31:05;;;;;;;4.75;4.35;;;13.30;99.90;;;;;;5080262;28;20052;-73
2022/06/06 06:34:09;;;;;;;4.45;3.90;;;13.30;99.90;;;;;;5097316;28;20089;-75
2022/06/06 06:36:47;;;;;;;4.45;4.00;;;13.30;99.90;;;;;;5097463;28;20055;-75
2022/06/06 06:39:42;;;;;;;4.80;3.88;;;13.30;99.90;;;;;;5079436;28;20044;-75
2022/06/06 06:42:21;;;;;;;4.55;3.67;;;13.30;99.90;;;;;;5080153;28;20050;-75
2022/06/06 06:45:13;;;;;;;5.30;2.78;;;13.30;99.90;;;;;;5097942;28;20040;-72
2022/06/06 06:47:39;;;;;;;3.40;2.90;;;13.30;99.90;;;;;;5095581;28;20476;-71
2022/06/06 06:50:14;;;;;;;3.15;2.67;;;13.30;99.90;;;;;;5096061;28;20122;-72
2022/06/06 06:53:10;;;;;;;3.42;2.83;;;13.30;99.90;;;;;;5080539;28;20044;-74
2022/06/06 06:55:58;;;;;;;3.63;2.33;;;13.30;99.90;;;;;;5096841;28;20044;-72
2022/06/06 06:58:47;;;;;;;2.58;1.40;;;13.30;99.90;;;;;;5096752;28;20044;-73
2022/06/06 07:01:29;;;;;;;2.63;1.10;;;13.20;99.90;;;;;;5097128;28;20066;-73
2022/06/06 07:10:22;;;;;;;1.20;0.80;;;13.20;99.90;;;;;;5086329;28;20044;-74
2022/06/06 07:13:09;;;;;;;1.38;0.57;;;13.20;99.90;;;;;;5079107;28;20127;-72
2022/06/06 07:15:47;;;;;;;1.17;0.60;;;13.20;99.90;;;;;;5096132;28;20448;-71
2022/06/06 07:18:16;;;;;;;1.35;0.85;;;13.20;99.90;;;;;;5095887;28;20459;-75
2022/06/06 07:20:45;;;;;;;0.85;0.68;;;13.20;99.90;;;;;;5095806;28;20050;-74
2022/06/06 07:23:12;;;;;;;1.52;0.80;;;13.20;99.90;;;;;;5095621;28;20117;-71
2022/06/06 07:25:49;;;;;;;1.45;1.13;;;13.30;99.90;;;;;;5079085;28;20051;-71
2022/06/06 07:28:21;;;;;;;2.63;1.70;;;13.40;99.90;;;;;;5078522;28;20044;-78
2022/06/06 07:30:58;;;;;;;2.15;1.10;;;13.40;99.90;;;;;;5094736;28;20043;-72
2022/06/06 07:34:16;;;;;;;3.42;1.58;;;13.40;99.90;;;;;;5080377;28;20048;-73
2022/06/06 07:37:05;;;;;;;2.30;1.52;;;13.50;99.90;;;;;;5087047;28;20052;-73
2022/06/06 07:39:39;;;;;;;4.15;1.75;;;13.40;99.90;;;;;;5095446;28;20051;-74
2022/06/06 07:42:22;;;;;;;212.40;189.57;;;13.40;99.90;;;;;;5097014;28;20460;-65
2022/06/06 07:45:16;;;;;;;12.95;11.70;;;13.40;99.90;;;;;;5095084;28;20399;-75
2022/06/06 07:48:22;;;;;;;8.02;7.22;;;13.40;99.90;;;;;;5095651;28;20044;-72
2022/06/06 07:50:53;;;;;;;3.40;2.78;;;13.50;99.90;;;;;;5096071;28;20519;-72
2022/06/06 07:53:35;;;;;;;1.75;1.52;;;13.50;99.90;;;;;;5096650;28;20040;-75
2022/06/06 07:56:32;;;;;;;1.83;1.38;;;13.50;99.90;;;;;;5095710;28;20047;-73
2022/06/06 07:59:26;;;;;;;2.63;1.52;;;13.40;99.90;;;;;;5084972;28;20040;-73
2022/06/06 08:02:25;;;;;;;2.30;1.77;;;13.50;99.90;;;;;;5078382;28;20479;-70
2022/06/06 08:05:07;;;;;;;2.30;1.67;;;13.50;99.90;;;;;;5080981;28;20044;-71
2022/06/06 08:07:47;;;;;;;1.52;1.27;;;13.50;99.90;;;;;;5094469;28;20040;-68
2022/06/06 08:10:18;;;;;;;1.65;1.40;;;13.50;99.90;;;;;;5094739;28;20047;-72
2022/06/06 08:13:18;;;;;;;2.58;1.80;;;13.60;99.90;;;;;;5095400;28;20036;-73
2022/06/06 08:16:24;;;;;;;2.10;1.63;;;13.80;99.90;;;;;;5095178;28;20048;-73
2022/06/06 08:19:30;;;;;;;1.95;1.42;;;13.80;99.90;;;;;;5094731;28;20122;-71
2022/06/06 08:21:57;;;;;;;2.20;1.55;;;13.90;99.90;;;;;;5096179;28;20046;-75
2022/06/06 08:24:42;;;;;;;34.20;27.85;;;14.10;99.90;;;;;;5094415;28;20131;-75
2022/06/06 08:27:19;;;;;;;5.38;3.92;;;14.20;99.90;;;;;;5079648;28;20052;-74
2022/06/06 08:29:47;;;;;;;2.60;2.28;;;14.20;99.90;;;;;;5093859;28;20043;-68
2022/06/06 08:32:14;;;;;;;2.05;1.45;;;14.30;99.90;;;;;;5094172;28;20044;-69
2022/06/06 08:34:41;;;;;;;2.00;1.30;;;14.20;99.90;;;;;;5094709;28;20054;-69
2022/06/06 08:37:20;;;;;;;1.65;1.10;;;14.20;99.90;;;;;;5076926;28;20056;-69
2022/06/06 08:39:53;;;;;;;1.95;1.23;;;14.20;99.90;;;;;;5096087;28;20127;-69
2022/06/06 08:42:46;;;;;;;2.67;1.00;;;14.30;99.90;;;;;;5095194;28;20044;-69
2022/06/06 08:45:19;;;;;;;1.67;1.10;;;14.40;99.90;;;;;;5077732;28;20055;-69
2022/06/06 08:47:55;;;;;;;1.98;1.00;;;14.50;99.90;;;;;;5095514;28;20462;-69
2022/06/06 08:50:53;;;;;;;3.33;1.60;;;14.70;99.90;;;;;;5095934;28;20383;-69
2022/06/06 08:53:31;;;;;;;2.20;1.08;;;14.80;99.90;;;;;;5094609;28;20044;-69
2022/06/06 08:56:12;;;;;;;0.82;0.80;;;14.80;99.90;;;;;;5077580;28;20043;-69
2022/06/06 08:58:54;;;;;;;1.73;1.10;;;14.90;99.90;;;;;;5093917;28;20044;-69
2022/06/06 09:01:26;;;;;;;2.53;1.30;;;14.80;99.90;;;;;;5094580;28;20048;-69
2022/06/06 09:04:21;;;;;;;1.73;1.27;;;14.80;99.90;;;;;;5095296;28;20093;-69
2022/06/06 09:07:09;;;;;;;2.17;1.65;;;14.80;99.90;;;;;;5094140;28;20383;-69
2022/06/06 09:09:42;;;;;;;1.98;1.35;;;14.70;99.90;;;;;;5094425;28;20052;-69
2022/06/06 09:12:32;;;;;;;1.55;1.45;;;14.60;99.90;;;;;;5095275;28;20040;-69
2022/06/06 09:15:13;;;;;;;7.13;5.45;;;14.60;99.90;;;;;;5094740;28;20048;-70
2022/06/06 09:18:25;;;;;;;2.20;1.90;;;14.50;99.90;;;;;;5093034;28;20040;-70
2022/06/06 09:21:18;;;;;;;2.25;2.03;;;14.50;99.90;;;;;;5085762;28;20040;-69
2022/06/06 09:24:13;;;;;;;2.53;1.90;;;14.50;99.90;;;;;;5093451;28;20487;-70
2022/06/06 09:27:17;;;;;;;2.30;1.80;;;14.40;99.90;;;;;;5093774;28;20039;-69
2022/06/06 09:29:45;;;;;;;2.08;1.58;;;14.50;99.90;;;;;;5094334;28;20456;-70
2022/06/06 09:32:18;;;;;;;1.88;1.58;;;14.50;99.90;;;;;;5094314;28;20044;-69
2022/06/06 09:35:21;;;;;;;3.10;1.85;;;14.50;99.90;;;;;;5095105;28;20055;-69
2022/06/06 09:37:48;;;;;;;3.70;2.20;;;14.50;99.90;;;;;;5095034;28;20040;-69
2022/06/06 09:40:40;;;;;;;2.28;1.85;;;14.60;99.90;;;;;;5094238;28;20122;-69
2022/06/06 09:43:08;;;;;;;2.00;1.60;;;14.60;99.90;;;;;;5094682;28;20048;-70
2022/06/06 09:46:06;;;;;;;2.35;1.40;;;14.60;99.90;;;;;;5092900;28;20403;-69
2022/06/06 09:48:42;;;;;;;1.95;1.60;;;14.60;99.90;;;;;;5092805;28;20136;-70
2022/06/06 09:51:27;;;;;;;3.42;1.60;;;14.70;99.90;;;;;;5076739;28;20454;-70
2022/06/06 10:00:17;;;;;;;2.60;1.90;;;14.70;99.90;;;;;;5093509;28;20040;-69
2022/06/06 10:03:12;;;;;;;2.58;1.63;;;14.70;99.90;;;;;;5093640;28;20040;-69
2022/06/06 10:05:45;;;;;;;1.90;1.63;;;14.70;99.90;;;;;;5093405;28;20048;-69
2022/06/06 10:08:36;;;;;;;1.88;1.45;;;14.70;99.90;;;;;;5093246;28;20043;-69
2022/06/06 10:11:34;;;;;;;1.83;1.20;;;14.60;99.90;;;;;;5094328;28;20047;-70
2022/06/06 10:14:27;;;;;;;5.40;4.28;;;14.60;99.90;;;;;;5093337;28;20044;-69
2022/06/06 10:17:03;;;;;;;1.88;1.58;;;14.60;99.90;;;;;;5078304;28;20047;-69
2022/06/06 10:19:38;;;;;;;1.85;1.40;;;14.60;99.90;;;;;;5093468;28;20044;-69
2022/06/06 10:22:33;;;;;;;2.00;1.40;;;14.60;99.90;;;;;;5094520;28;20127;-69
2022/06/06 10:25:12;;;;;;;1.48;1.10;;;14.70;99.90;;;;;;5094199;28;20048;-69
2022/06/06 10:27:46;;;;;;;1.55;1.30;;;14.70;99.90;;;;;;5092699;28;20051;-69
2022/06/06 10:30:37;;;;;;;1.38;1.00;;;14.90;99.90;;;;;;5092177;28;20494;-69
2022/06/06 10:33:48;;;;;;;1.40;1.00;;;15.00;99.90;;;;;;5093017;28;20130;-69
2022/06/06 10:36:37;;;;;;;1.70;1.10;;;15.10;99.90;;;;;;5093094;28;20044;-69
2022/06/06 10:39:28;;;;;;;3.08;1.27;;;15.20;99.90;;;;;;5093168;28;20036;-70
2022/06/06 10:42:32;;;;;;;2.95;1.27;;;15.20;99.90;;;;;;5093253;28;20127;-69
2022/06/06 10:45:08;;;;;;;2.75;1.42;;;15.20;99.90;;;;;;5086919;28;20052;-69
2022/06/06 10:47:56;;;;;;;1.63;1.17;;;15.20;99.90;;;;;;5093205;28;20137;-69
2022/06/06 10:50:34;;;;;;;2.22;1.30;;;15.10;99.90;;;;;;5093196;28;20044;-70
2022/06/06 10:53:11;;;;;;;4.38;1.40;;;15.10;99.90;;;;;;5093125;28;20051;-69
2022/06/06 10:55:50;;;;;;;2.13;1.50;;;15.10;99.90;;;;;;5076674;28;20044;-69
2022/06/06 10:58:48;;;;;;;4.93;1.70;;;15.00;99.90;;;;;;5093754;28;20464;-69
2022/06/06 11:01:39;;;;;;;4.05;1.80;;;15.10;99.90;;;;;;5094155;28;20040;-69
2022/06/06 11:04:36;;;;;;;38.47;32.47;;;15.10;99.90;;;;;;5092985;28;20456;-74
2022/06/06 11:07:29;;;;;;;8.43;7.13;;;15.20;99.90;;;;;;5096407;28;20040;-74
2022/06/06 11:10:02;;;;;;;3.22;2.22;;;15.20;99.90;;;;;;5096177;28;20040;-76
2022/06/06 11:12:57;;;;;;;2.95;1.95;;;15.30;99.90;;;;;;5095560;28;20050;-75
2022/06/06 11:15:44;;;;;;;2.72;1.70;;;15.50;99.90;;;;;;5095602;28;20046;-74
2022/06/06 11:18:27;;;;;;;2.17;1.52;;;15.50;99.90;;;;;;5096267;28;20070;-77
2022/06/06 11:20:56;;;;;;;2.97;1.73;;;15.60;99.90;;;;;;5095353;28;20048;-75
2022/06/06 11:23:49;;;;;;;6.50;2.20;;;15.60;99.90;;;;;;5096808;28;20040;-77
2022/06/06 11:26:28;;;;;;;3.53;1.40;;;15.60;99.90;;;;;;5096107;28;20364;-72
2022/06/06 11:29:16;;;;;;;2.55;1.75;;;15.50;99.90;;;;;;5096703;28;20071;-69
2022/06/06 11:32:24;;;;;;;1.92;1.40;;;15.50;99.90;;;;;;5097119;28;20070;-73
2022/06/06 11:35:29;;;;;;;3.03;2.08;;;15.50;99.90;;;;;;5077266;28;20051;-70
2022/06/06 11:38:34;;;;;;;4.28;2.00;;;15.40;99.90;;;;;;5081252;28;20036;-75
2022/06/06 11:41:08;;;;;;;2.83;1.50;;;15.30;99.90;;;;;;5097155;28;20047;-72
2022/06/06 11:44:12;;;;;;;2.42;1.50;;;15.40;99.90;;;;;;5079507;28;20044;-73
2022/06/06 11:46:54;;;;;;;2.25;1.42;;;15.50;99.90;;;;;;5097084;28;20380;-73
2022/06/06 11:49:27;;;;;;;2.47;1.50;;;15.50;99.90;;;;;;5096736;28;20040;-72
2022/06/06 11:52:21;;;;;;;1.90;1.25;;;15.70;99.90;;;;;;5095765;28;20044;-69
2022/06/06 11:55:01;;;;;;;26.83;23.15;;;15.80;99.90;;;;;;5096114;28;20052;-69
2022/06/06 11:57:50;;;;;;;99.65;84.93;;;15.90;99.90;;;;;;5096335;28;20123;-69
2022/06/06 12:00:21;;;;;;;;;;;15.90;99.90;;;;;;5095632;28;20044;-68
2022/06/06 12:03:13;;;;;;;9.43;7.38;;;16.00;99.90;;;;;;5094769;28;20260;-69
2022/06/06 12:06:07;;;;;;;3.97;3.58;;;16.00;99.90;;;;;;5096062;28;20101;-69
2022/06/06 12:08:43;;;;;;;3.58;2.70;;;16.00;99.90;;;;;;5095634;28;20066;-69
2022/06/06 12:11:28;;;;;;;4.13;1.92;;;16.10;99.90;;;;;;5095629;28;20479;-69
2022/06/06 12:14:20;;;;;;;2.85;2.10;;;16.20;99.90;;;;;;5095503;28;20040;-70
2022/06/06 12:16:59;;;;;;;3.45;2.17;;;16.20;99.90;;;;;;5095070;28;20072;-68
2022/06/06 12:19:44;;;;;;;2.72;2.13;;;16.20;99.90;;;;;;5094816;28;20098;-70
2022/06/06 12:22:46;;;;;;;2.45;1.70;;;16.10;99.90;;;;;;5095582;28;20357;-71
2022/06/06 12:25:31;;;;;;;2.92;1.88;;;16.00;99.90;;;;;;5094322;28;20505;-76
2022/06/06 12:28:27;;;;;;;3.78;2.30;;;16.10;99.90;;;;;;5096169;28;20044;-71
2022/06/06 12:31:28;;;;;;;4.95;2.33;;;16.10;99.90;;;;;;5094070;28;20481;-70
2022/06/06 12:34:04;;;;;;;3.38;2.35;;;16.20;99.90;;;;;;5095219;28;20050;-70
2022/06/06 12:36:35;;;;;;;2.80;2.00;;;16.20;99.90;;;;;;5093882;28;20044;-71
2022/06/06 12:39:21;;;;;;;4.13;2.50;;;16.20;99.90;;;;;;5078384;28;20431;-74
2022/06/06 12:42:20;;;;;;;3.78;2.33;;;16.20;99.90;;;;;;5093956;28;20048;-69
2022/06/06 12:45:05;;;;;;;;;;;16.20;99.90;;;;;;5094184;28;20047;-69
2022/06/06 12:47:52;;;;;;;3.00;2.60;;;16.30;99.90;;;;;;5093900;28;19939;-66
2022/06/06 12:51:00;;;;;;;3.95;2.60;;;16.40;99.90;;;;;;5093660;28;20044;-66
2022/06/06 12:53:49;;;;;;;3.67;2.37;;;16.60;99.90;;;;;;5084619;28;20043;-69
2022/06/06 12:56:31;;;;;;;4.00;2.28;;;16.60;99.90;;;;;;5094345;28;20044;-68
2022/06/06 12:59:23;;;;;;;5.47;2.60;;;16.70;99.90;;;;;;5077972;28;20048;-65
2022/06/06 13:02:15;;;;;;;3.53;2.60;;;16.70;99.90;;;;;;5094472;28;20047;-69
2022/06/06 13:05:13;;;;;;;3.50;2.65;;;16.80;99.90;;;;;;5095568;28;20044;-68
2022/06/06 13:08:05;;;;;;;3.75;2.53;;;16.90;99.90;;;;;;5094412;28;20062;-66
2022/06/06 13:11:09;;;;;;;5.38;2.97;;;17.00;99.90;;;;;;5094492;28;20043;-67
2022/06/06 13:14:05;;;;;;;3.78;2.53;;;17.30;99.90;;;;;;5089871;28;20047;-68
2022/06/06 13:16:50;;;;;;;42.72;38.63;;;17.50;99.90;;;;;;5077904;28;20044;-65
2022/06/06 13:19:38;;;;;;;61.83;54.00;;;17.90;99.90;;;;;;5093840;28;20114;-64
2022/06/06 13:22:36;;;;;;;9.93;8.90;;;18.20;99.90;;;;;;5092953;28;20058;-65
2022/06/06 13:25:32;;;;;;;4.45;4.05;;;18.40;99.90;;;;;;5077730;28;20055;-65
2022/06/06 13:28:11;;;;;;;3.45;2.95;;;18.60;99.90;;;;;;5093924;28;20113;-64
2022/06/06 13:30:47;;;;;;;3.92;3.00;;;18.60;99.90;;;;;;5093453;28;20044;-70
2022/06/06 13:33:17;;;;;;;3.85;2.58;;;18.90;99.90;;;;;;5094067;28;20036;-69
2022/06/06 13:36:03;;;;;;;4.32;2.75;;;19.00;99.90;;;;;;5093057;28;20070;-69
2022/06/06 13:38:54;;;;;;;169.30;150.95;;;19.10;99.90;;;;;;5093776;28;20051;-71
2022/06/06 13:41:56;;;;;;;20.38;17.48;;;19.30;99.90;;;;;;5095086;28;20101;-69
2022/06/06 13:44:38;;;;;;;7.07;6.30;;;19.50;99.90;;;;;;5088627;28;20052;-68
2022/06/06 13:47:12;;;;;;;4.53;4.03;;;19.50;99.90;;;;;;5094115;28;20036;-68
2022/06/06 13:49:47;;;;;;;4.80;3.42;;;19.50;99.90;;;;;;5060032;28;20440;-66
2022/06/06 13:52:24;;;;;;;11.80;10.50;;;19.50;99.90;;;;;;5093419;28;20044;-67
2022/06/06 13:54:51;;;;;;;9.65;8.52;;;19.30;99.90;;;;;;5092999;28;20048;-68
2022/06/06 13:57:30;;;;;;;5.38;4.88;;;19.10;99.90;;;;;;5092348;28;20036;-66
2022/06/06 13:59:57;;;;;;;4.13;3.60;;;19.00;99.90;;;;;;5094459;28;20040;-66
2022/06/06 14:02:46;;;;;;;4.78;4.10;;;18.90;99.90;;;;;;5094294;28;20364;-66
2022/06/06 14:05:35;;;;;;;4.38;3.20;;;18.80;99.90;;;;;;5093441;28;20050;-68
2022/06/06 14:08:05;;;;;;;;;;;18.80;99.90;;;;;;5095055;28;20040;-67